sensor_id;sensor_type;location;lat;lon;timestamp;pressure;altitude;pressure_sealevel;temperature
20848;BMP180;10584;50.854;12.902;2023-03-23T00:00:48;97347.00;;;12.70
20848;BMP180;10584;50.854;12.902;2023-03-23T00:06:19;97336.00;;;12.50
20848;BMP180;10584;50.854;12.902;2023-03-23T00:11:47;97337.00;;;12.50
20848;BMP180;10584;50.854;12.902;2023-03-23T00:17:18;97329.00;;;12.40
20848;BMP180;10584;50.854;12.902;2023-03-23T00:22:53;97338.00;;;12.40
20848;BMP180;10584;50.854;12.902;2023-03-23T00:28:31;97338.00;;;12.30
20848;BMP180;10584;50.854;12.902;2023-03-23T00:34:05;97329.00;;;12.20
20848;BMP180;10584;50.854;12.902;2023-03-23T00:39:28;97330.00;;;12.10
20848;BMP180;10584;50.854;12.902;2023-03-23T00:44:48;97323.00;;;12.00
20848;BMP180;10584;50.854;12.902;2023-03-23T00:50:11;97307.00;;;11.70
20848;BMP180;10584;50.854;12.902;2023-03-23T00:55:33;97296.00;;;11.70
20848;BMP180;10584;50.854;12.902;2023-03-23T01:00:54;97289.00;;;11.70
20848;BMP180;10584;50.854;12.902;2023-03-23T01:06:26;97289.00;;;11.60
20848;BMP180;10584;50.854;12.902;2023-03-23T01:12:06;97275.00;;;11.50
20848;BMP180;10584;50.854;12.902;2023-03-23T01:17:43;97278.00;;;11.50
20848;BMP180;10584;50.854;12.902;2023-03-23T01:23:12;97269.00;;;11.50
20848;BMP180;10584;50.854;12.902;2023-03-23T01:28:38;97266.00;;;11.40
20848;BMP180;10584;50.854;12.902;2023-03-23T01:34:00;97263.00;;;11.40
20848;BMP180;10584;50.854;12.902;2023-03-23T01:39:22;97248.00;;;11.40
20848;BMP180;10584;50.854;12.902;2023-03-23T01:50:08;97257.00;;;11.50
20848;BMP180;10584;50.854;12.902;2023-03-23T01:55:31;97255.00;;;11.60
20848;BMP180;10584;50.854;12.902;2023-03-23T02:00:52;97255.00;;;11.70
20848;BMP180;10584;50.854;12.902;2023-03-23T02:06:23;97242.00;;;11.80
20848;BMP180;10584;50.854;12.902;2023-03-23T02:12:02;97256.00;;;12.10
20848;BMP180;10584;50.854;12.902;2023-03-23T02:23:54;97241.00;;;12.30
20848;BMP180;10584;50.854;12.902;2023-03-23T02:34:56;97232.00;;;12.30
20848;BMP180;10584;50.854;12.902;2023-03-23T02:40:23;97235.00;;;12.40
20848;BMP180;10584;50.854;12.902;2023-03-23T02:45:45;97229.00;;;12.30
20848;BMP180;10584;50.854;12.902;2023-03-23T02:51:21;97222.00;;;12.40
20848;BMP180;10584;50.854;12.902;2023-03-23T02:56:56;97219.00;;;12.40
20848;BMP180;10584;50.854;12.902;2023-03-23T03:02:45;97206.00;;;12.40
20848;BMP180;10584;50.854;12.902;2023-03-23T03:13:53;97208.00;;;12.60
20848;BMP180;10584;50.854;12.902;2023-03-23T03:19:30;97209.00;;;12.70
20848;BMP180;10584;50.854;12.902;2023-03-23T03:24:52;97199.00;;;12.70
20848;BMP180;10584;50.854;12.902;2023-03-23T03:30:21;97205.00;;;12.70
20848;BMP180;10584;50.854;12.902;2023-03-23T03:35:43;97214.00;;;12.70
20848;BMP180;10584;50.854;12.902;2023-03-23T03:41:20;97209.00;;;12.70
20848;BMP180;10584;50.854;12.902;2023-03-23T03:46:59;97200.00;;;12.70
20848;BMP180;10584;50.854;12.902;2023-03-23T03:52:41;97195.00;;;12.60
20848;BMP180;10584;50.854;12.902;2023-03-23T03:58:14;97186.00;;;12.60
20848;BMP180;10584;50.854;12.902;2023-03-23T04:04:11;97194.00;;;12.50
20848;BMP180;10584;50.854;12.902;2023-03-23T04:09:46;97181.00;;;12.60
20848;BMP180;10584;50.854;12.902;2023-03-23T04:15:10;97183.00;;;12.70
20848;BMP180;10584;50.854;12.902;2023-03-23T04:20:31;97172.00;;;12.60
20848;BMP180;10584;50.854;12.902;2023-03-23T04:25:57;97178.00;;;12.70
20848;BMP180;10584;50.854;12.902;2023-03-23T04:31:29;97173.00;;;12.60
20848;BMP180;10584;50.854;12.902;2023-03-23T04:37:15;97182.00;;;12.50
20848;BMP180;10584;50.854;12.902;2023-03-23T04:42:50;97183.00;;;12.50
20848;BMP180;10584;50.854;12.902;2023-03-23T04:48:52;97181.00;;;12.60
20848;BMP180;10584;50.854;12.902;2023-03-23T04:54:25;97177.00;;;12.60
20848;BMP180;10584;50.854;12.902;2023-03-23T04:59:52;97186.00;;;12.80
20848;BMP180;10584;50.854;12.902;2023-03-23T05:05:26;97186.00;;;12.80
20848;BMP180;10584;50.854;12.902;2023-03-23T05:11:11;97198.00;;;12.70
20848;BMP180;10584;50.854;12.902;2023-03-23T05:16:45;97181.00;;;12.80
20848;BMP180;10584;50.854;12.902;2023-03-23T05:22:27;97186.00;;;12.90
20848;BMP180;10584;50.854;12.902;2023-03-23T05:28:02;97183.00;;;12.90
20848;BMP180;10584;50.854;12.902;2023-03-23T05:34:01;97196.00;;;12.90
20848;BMP180;10584;50.854;12.902;2023-03-23T05:39:31;97185.00;;;13.00
20848;BMP180;10584;50.854;12.902;2023-03-23T05:45:13;97195.00;;;13.10
20848;BMP180;10584;50.854;12.902;2023-03-23T05:50:34;97203.00;;;13.20
20848;BMP180;10584;50.854;12.902;2023-03-23T05:56:06;97194.00;;;13.20
20848;BMP180;10584;50.854;12.902;2023-03-23T06:02:06;97201.00;;;13.30
20848;BMP180;10584;50.854;12.902;2023-03-23T06:07:28;97217.00;;;13.20
20848;BMP180;10584;50.854;12.902;2023-03-23T06:12:59;97220.00;;;13.30
20848;BMP180;10584;50.854;12.902;2023-03-23T06:18:31;97219.00;;;13.30
20848;BMP180;10584;50.854;12.902;2023-03-23T06:24:08;97232.00;;;13.40
20848;BMP180;10584;50.854;12.902;2023-03-23T06:29:32;97237.00;;;13.40
20848;BMP180;10584;50.854;12.902;2023-03-23T06:34:53;97227.00;;;13.30
20848;BMP180;10584;50.854;12.902;2023-03-23T06:40:57;97252.00;;;13.50
20848;BMP180;10584;50.854;12.902;2023-03-23T06:46:46;97245.00;;;13.60
20848;BMP180;10584;50.854;12.902;2023-03-23T06:52:36;97258.00;;;13.60
20848;BMP180;10584;50.854;12.902;2023-03-23T06:58:08;97248.00;;;13.60
20848;BMP180;10584;50.854;12.902;2023-03-23T07:03:42;97265.00;;;13.80
20848;BMP180;10584;50.854;12.902;2023-03-23T07:09:07;97267.00;;;13.80
20848;BMP180;10584;50.854;12.902;2023-03-23T07:14:28;97271.00;;;13.70
20848;BMP180;10584;50.854;12.902;2023-03-23T07:19:48;97268.00;;;13.80
20848;BMP180;10584;50.854;12.902;2023-03-23T07:25:10;97270.00;;;13.80
20848;BMP180;10584;50.854;12.902;2023-03-23T07:30:40;97268.00;;;13.80
20848;BMP180;10584;50.854;12.902;2023-03-23T07:36:23;97273.00;;;13.90
20848;BMP180;10584;50.854;12.902;2023-03-23T07:42:01;97278.00;;;13.70
20848;BMP180;10584;50.854;12.902;2023-03-23T07:47:52;97286.00;;;13.70
20848;BMP180;10584;50.854;12.902;2023-03-23T07:53:28;97294.00;;;13.60
20848;BMP180;10584;50.854;12.902;2023-03-23T07:59:28;97298.00;;;13.80
20848;BMP180;10584;50.854;12.902;2023-03-23T08:04:51;97299.00;;;13.70
20848;BMP180;10584;50.854;12.902;2023-03-23T08:10:31;97305.00;;;13.50
20848;BMP180;10584;50.854;12.902;2023-03-23T08:16:19;97306.00;;;13.50
20848;BMP180;10584;50.854;12.902;2023-03-23T08:22:08;97314.00;;;13.40
20848;BMP180;10584;50.854;12.902;2023-03-23T08:28:03;97310.00;;;13.20
20848;BMP180;10584;50.854;12.902;2023-03-23T08:33:55;97306.00;;;13.10
20848;BMP180;10584;50.854;12.902;2023-03-23T08:39:31;97315.00;;;13.00
20848;BMP180;10584;50.854;12.902;2023-03-23T08:45:12;97313.00;;;12.90
20848;BMP180;10584;50.854;12.902;2023-03-23T08:50:56;97300.00;;;13.10
20848;BMP180;10584;50.854;12.902;2023-03-23T08:56:51;97315.00;;;13.10
20848;BMP180;10584;50.854;12.902;2023-03-23T09:02:52;97304.00;;;13.10
20848;BMP180;10584;50.854;12.902;2023-03-23T09:08:31;97308.00;;;13.20
20848;BMP180;10584;50.854;12.902;2023-03-23T09:13:57;97303.00;;;13.20
20848;BMP180;10584;50.854;12.902;2023-03-23T09:19:20;97316.00;;;13.10
20848;BMP180;10584;50.854;12.902;2023-03-23T09:24:43;97311.00;;;13.20
20848;BMP180;10584;50.854;12.902;2023-03-23T09:30:13;97317.00;;;13.40
20848;BMP180;10584;50.854;12.902;2023-03-23T09:35:34;97311.00;;;13.50
20848;BMP180;10584;50.854;12.902;2023-03-23T09:47:06;97304.00;;;13.70
20848;BMP180;10584;50.854;12.902;2023-03-23T09:52:54;97313.00;;;13.90
20848;BMP180;10584;50.854;12.902;2023-03-23T09:58:46;97325.00;;;13.80
20848;BMP180;10584;50.854;12.902;2023-03-23T10:10:13;97348.00;;;13.90
20848;BMP180;10584;50.854;12.902;2023-03-23T10:15:36;97317.00;;;13.90
20848;BMP180;10584;50.854;12.902;2023-03-23T10:21:11;97342.00;;;13.80
20848;BMP180;10584;50.854;12.902;2023-03-23T10:32:58;97356.00;;;13.90
20848;BMP180;10584;50.854;12.902;2023-03-23T10:38:49;97349.00;;;14.00
20848;BMP180;10584;50.854;12.902;2023-03-23T10:44:26;97338.00;;;14.10
20848;BMP180;10584;50.854;12.902;2023-03-23T10:49:54;97336.00;;;14.00
20848;BMP180;10584;50.854;12.902;2023-03-23T10:55:18;97348.00;;;14.20
20848;BMP180;10584;50.854;12.902;2023-03-23T11:00:44;97335.00;;;14.10
20848;BMP180;10584;50.854;12.902;2023-03-23T11:06:19;97355.00;;;14.20
20848;BMP180;10584;50.854;12.902;2023-03-23T11:12:04;97375.00;;;13.70
20848;BMP180;10584;50.854;12.902;2023-03-23T11:17:33;97358.00;;;13.90
20848;BMP180;10584;50.854;12.902;2023-03-23T11:23:08;97351.00;;;13.80
20848;BMP180;10584;50.854;12.902;2023-03-23T11:28:51;97348.00;;;13.70
20848;BMP180;10584;50.854;12.902;2023-03-23T11:34:17;97347.00;;;13.70
20848;BMP180;10584;50.854;12.902;2023-03-23T11:45:37;97356.00;;;13.50
20848;BMP180;10584;50.854;12.902;2023-03-23T11:51:32;97349.00;;;13.50
20848;BMP180;10584;50.854;12.902;2023-03-23T11:57:18;97351.00;;;13.50
20848;BMP180;10584;50.854;12.902;2023-03-23T12:03:07;97331.00;;;13.70
20848;BMP180;10584;50.854;12.902;2023-03-23T12:15:18;97344.00;;;13.90
20848;BMP180;10584;50.854;12.902;2023-03-23T12:27:06;97343.00;;;14.00
20848;BMP180;10584;50.854;12.902;2023-03-23T12:33:22;97350.00;;;14.10
20848;BMP180;10584;50.854;12.902;2023-03-23T12:44:21;97353.00;;;14.60
20848;BMP180;10584;50.854;12.902;2023-03-23T12:50:18;97353.00;;;14.50
20848;BMP180;10584;50.854;12.902;2023-03-23T13:07:49;97351.00;;;14.60
20848;BMP180;10584;50.854;12.902;2023-03-23T13:13:23;97360.00;;;14.60
20848;BMP180;10584;50.854;12.902;2023-03-23T13:19:24;97349.00;;;14.50
20848;BMP180;10584;50.854;12.902;2023-03-23T13:24:56;97346.00;;;14.40
20848;BMP180;10584;50.854;12.902;2023-03-23T13:30:22;97336.00;;;14.50
20848;BMP180;10584;50.854;12.902;2023-03-23T13:35:46;97328.00;;;14.50
20848;BMP180;10584;50.854;12.902;2023-03-23T13:41:23;97322.00;;;14.50
20848;BMP180;10584;50.854;12.902;2023-03-23T13:47:25;97309.00;;;14.60
20848;BMP180;10584;50.854;12.902;2023-03-23T13:53:31;97298.00;;;15.20
20848;BMP180;10584;50.854;12.902;2023-03-23T13:59:31;97299.00;;;15.60
20848;BMP180;10584;50.854;12.902;2023-03-23T14:04:52;97297.00;;;15.90
20848;BMP180;10584;50.854;12.902;2023-03-23T14:10:19;97286.00;;;15.90
20848;BMP180;10584;50.854;12.902;2023-03-23T14:16:12;97293.00;;;15.80
20848;BMP180;10584;50.854;12.902;2023-03-23T14:21:59;97294.00;;;15.70
20848;BMP180;10584;50.854;12.902;2023-03-23T14:27:31;97298.00;;;15.60
20848;BMP180;10584;50.854;12.902;2023-03-23T14:33:12;97282.00;;;15.60
20848;BMP180;10584;50.854;12.902;2023-03-23T14:38:35;97297.00;;;16.00
20848;BMP180;10584;50.854;12.902;2023-03-23T14:44:05;97310.00;;;15.50
20848;BMP180;10584;50.854;12.902;2023-03-23T14:49:37;97305.00;;;15.20
20848;BMP180;10584;50.854;12.902;2023-03-23T14:55:18;97302.00;;;15.00
20848;BMP180;10584;50.854;12.902;2023-03-23T15:00:46;97321.00;;;15.00
20848;BMP180;10584;50.854;12.902;2023-03-23T15:06:26;97311.00;;;14.70
20848;BMP180;10584;50.854;12.902;2023-03-23T15:12:04;97323.00;;;14.80
20848;BMP180;10584;50.854;12.902;2023-03-23T15:17:46;97325.00;;;14.70
20848;BMP180;10584;50.854;12.902;2023-03-23T15:23:32;97321.00;;;14.60
20848;BMP180;10584;50.854;12.902;2023-03-23T15:29:23;97326.00;;;14.30
20848;BMP180;10584;50.854;12.902;2023-03-23T15:34:45;97340.00;;;14.30
20848;BMP180;10584;50.854;12.902;2023-03-23T15:40:13;97352.00;;;14.10
20848;BMP180;10584;50.854;12.902;2023-03-23T15:45:35;97358.00;;;14.10
20848;BMP180;10584;50.854;12.902;2023-03-23T15:50:59;97365.00;;;14.00
20848;BMP180;10584;50.854;12.902;2023-03-23T15:56:41;97374.00;;;13.80
20848;BMP180;10584;50.854;12.902;2023-03-23T16:02:18;97365.00;;;13.60
20848;BMP180;10584;50.854;12.902;2023-03-23T16:08:01;97371.00;;;13.40
20848;BMP180;10584;50.854;12.902;2023-03-23T16:13:26;97373.00;;;13.40
20848;BMP180;10584;50.854;12.902;2023-03-23T16:19:14;97370.00;;;13.10
20848;BMP180;10584;50.854;12.902;2023-03-23T16:24:42;97359.00;;;13.00
20848;BMP180;10584;50.854;12.902;2023-03-23T16:30:22;97364.00;;;13.10
20848;BMP180;10584;50.854;12.902;2023-03-23T16:35:44;97354.00;;;13.20
20848;BMP180;10584;50.854;12.902;2023-03-23T16:41:27;97367.00;;;13.30
20848;BMP180;10584;50.854;12.902;2023-03-23T16:47:07;97373.00;;;13.20
20848;BMP180;10584;50.854;12.902;2023-03-23T16:52:53;97377.00;;;13.30
20848;BMP180;10584;50.854;12.902;2023-03-23T16:58:22;97379.00;;;13.10
20848;BMP180;10584;50.854;12.902;2023-03-23T17:04:02;97384.00;;;13.20
20848;BMP180;10584;50.854;12.902;2023-03-23T17:09:49;97405.00;;;13.10
20848;BMP180;10584;50.854;12.902;2023-03-23T17:15:31;97395.00;;;13.20
20848;BMP180;10584;50.854;12.902;2023-03-23T17:20:58;97388.00;;;13.20
20848;BMP180;10584;50.854;12.902;2023-03-23T17:26:48;97385.00;;;13.10
20848;BMP180;10584;50.854;12.902;2023-03-23T17:32:28;97393.00;;;12.80
20848;BMP180;10584;50.854;12.902;2023-03-23T17:38:15;97389.00;;;13.00
20848;BMP180;10584;50.854;12.902;2023-03-23T17:43:59;97393.00;;;12.80
20848;BMP180;10584;50.854;12.902;2023-03-23T17:49:28;97389.00;;;12.70
20848;BMP180;10584;50.854;12.902;2023-03-23T17:54:50;97395.00;;;12.80
20848;BMP180;10584;50.854;12.902;2023-03-23T18:00:12;97396.00;;;12.70
20848;BMP180;10584;50.854;12.902;2023-03-23T18:05:40;97385.00;;;12.70
20848;BMP180;10584;50.854;12.902;2023-03-23T18:11:17;97405.00;;;12.60
20848;BMP180;10584;50.854;12.902;2023-03-23T18:16:57;97391.00;;;12.60
20848;BMP180;10584;50.854;12.902;2023-03-23T18:22:39;97389.00;;;12.70
20848;BMP180;10584;50.854;12.902;2023-03-23T18:28:26;97373.00;;;12.60
20848;BMP180;10584;50.854;12.902;2023-03-23T18:34:05;97378.00;;;12.60
20848;BMP180;10584;50.854;12.902;2023-03-23T18:39:34;97377.00;;;12.50
20848;BMP180;10584;50.854;12.902;2023-03-23T18:44:57;97370.00;;;12.50
20848;BMP180;10584;50.854;12.902;2023-03-23T18:50:19;97381.00;;;12.40
20848;BMP180;10584;50.854;12.902;2023-03-23T18:55:42;97375.00;;;12.50
20848;BMP180;10584;50.854;12.902;2023-03-23T19:01:14;97379.00;;;12.60
20848;BMP180;10584;50.854;12.902;2023-03-23T19:06:50;97381.00;;;12.60
20848;BMP180;10584;50.854;12.902;2023-03-23T19:12:37;97385.00;;;12.50
20848;BMP180;10584;50.854;12.902;2023-03-23T19:18:17;97372.00;;;12.50
20848;BMP180;10584;50.854;12.902;2023-03-23T19:23:53;97377.00;;;12.50
20848;BMP180;10584;50.854;12.902;2023-03-23T19:29:23;97381.00;;;12.40
20848;BMP180;10584;50.854;12.902;2023-03-23T19:34:50;97378.00;;;12.50
20848;BMP180;10584;50.854;12.902;2023-03-23T19:40:12;97370.00;;;12.50
20848;BMP180;10584;50.854;12.902;2023-03-23T19:45:58;97383.00;;;12.50
20848;BMP180;10584;50.854;12.902;2023-03-23T19:51:46;97384.00;;;12.60
20848;BMP180;10584;50.854;12.902;2023-03-23T19:57:41;97398.00;;;12.50
20848;BMP180;10584;50.854;12.902;2023-03-23T20:03:31;97395.00;;;12.70
20848;BMP180;10584;50.854;12.902;2023-03-23T20:09:08;97401.00;;;12.50
20848;BMP180;10584;50.854;12.902;2023-03-23T20:14:48;97399.00;;;12.50
20848;BMP180;10584;50.854;12.902;2023-03-23T20:20:10;97394.00;;;12.40
20848;BMP180;10584;50.854;12.902;2023-03-23T20:25:32;97386.00;;;12.60
20848;BMP180;10584;50.854;12.902;2023-03-23T20:31:14;97396.00;;;12.50
20848;BMP180;10584;50.854;12.902;2023-03-23T20:37:01;97385.00;;;12.40
20848;BMP180;10584;50.854;12.902;2023-03-23T20:42:49;97385.00;;;12.50
20848;BMP180;10584;50.854;12.902;2023-03-23T20:48:22;97385.00;;;12.30
20848;BMP180;10584;50.854;12.902;2023-03-23T20:54:02;97401.00;;;12.30
20848;BMP180;10584;50.854;12.902;2023-03-23T20:59:30;97387.00;;;12.20
20848;BMP180;10584;50.854;12.902;2023-03-23T21:04:54;97390.00;;;12.30
20848;BMP180;10584;50.854;12.902;2023-03-23T21:10:27;97386.00;;;12.20
20848;BMP180;10584;50.854;12.902;2023-03-23T21:15:54;97374.00;;;12.20
20848;BMP180;10584;50.854;12.902;2023-03-23T21:21:36;97377.00;;;12.30
20848;BMP180;10584;50.854;12.902;2023-03-23T21:27:48;97368.00;;;12.20
20848;BMP180;10584;50.854;12.902;2023-03-23T21:33:27;97367.00;;;12.20
20848;BMP180;10584;50.854;12.902;2023-03-23T21:39:06;97364.00;;;12.20
20848;BMP180;10584;50.854;12.902;2023-03-23T21:44:34;97350.00;;;12.20
20848;BMP180;10584;50.854;12.902;2023-03-23T21:49:56;97340.00;;;12.20
20848;BMP180;10584;50.854;12.902;2023-03-23T21:55:19;97336.00;;;12.20
20848;BMP180;10584;50.854;12.902;2023-03-23T22:00:42;97321.00;;;12.20
20848;BMP180;10584;50.854;12.902;2023-03-23T22:06:19;97318.00;;;12.20
20848;BMP180;10584;50.854;12.902;2023-03-23T22:12:08;97322.00;;;12.30
20848;BMP180;10584;50.854;12.902;2023-03-23T22:17:55;97311.00;;;12.30
20848;BMP180;10584;50.854;12.902;2023-03-23T22:23:32;97308.00;;;12.40
20848;BMP180;10584;50.854;12.902;2023-03-23T22:29:11;97308.00;;;12.20
20848;BMP180;10584;50.854;12.902;2023-03-23T22:34:39;97297.00;;;12.30
20848;BMP180;10584;50.854;12.902;2023-03-23T22:40:01;97298.00;;;12.10
20848;BMP180;10584;50.854;12.902;2023-03-23T22:45:22;97293.00;;;12.20
20848;BMP180;10584;50.854;12.902;2023-03-23T22:50:46;97276.00;;;12.20
20848;BMP180;10584;50.854;12.902;2023-03-23T22:56:17;97280.00;;;12.10
20848;BMP180;10584;50.854;12.902;2023-03-23T23:01:58;97270.00;;;12.20
20848;BMP180;10584;50.854;12.902;2023-03-23T23:07:33;97257.00;;;12.20
20848;BMP180;10584;50.854;12.902;2023-03-23T23:13:19;97245.00;;;12.20
20848;BMP180;10584;50.854;12.902;2023-03-23T23:18:57;97231.00;;;12.20
20848;BMP180;10584;50.854;12.902;2023-03-23T23:24:26;97223.00;;;12.20
20848;BMP180;10584;50.854;12.902;2023-03-23T23:29:48;97217.00;;;12.10
20848;BMP180;10584;50.854;12.902;2023-03-23T23:35:10;97202.00;;;11.90
20848;BMP180;10584;50.854;12.902;2023-03-23T23:40:32;97204.00;;;11.90
20848;BMP180;10584;50.854;12.902;2023-03-23T23:45:58;97191.00;;;11.80
20848;BMP180;10584;50.854;12.902;2023-03-23T23:51:51;97194.00;;;11.80
20848;BMP180;10584;50.854;12.902;2023-03-23T23:57:37;97196.00;;;11.70
